sensor_id;sensor_type;location;lat;lon;timestamp;P1;durP1;ratioP1;P2;durP2;ratioP2
11924;SDS011;6022;48.768;18.608;2022-08-21T00:00:26;21.97;;;13.17;;
11924;SDS011;6022;48.768;18.608;2022-08-21T00:02:56;27.97;;;13.43;;
11924;SDS011;6022;48.768;18.608;2022-08-21T00:05:36;19.13;;;12.33;;
11924;SDS011;6022;48.768;18.608;2022-08-21T00:08:08;20.43;;;11.03;;
11924;SDS011;6022;48.768;18.608;2022-08-21T00:10:36;13.33;;;10.07;;
11924;SDS011;6022;48.768;18.608;2022-08-21T00:13:05;22.23;;;10.97;;
11924;SDS011;6022;48.768;18.608;2022-08-21T00:15:34;12.13;;;9.17;;
11924;SDS011;6022;48.768;18.608;2022-08-21T00:18:04;10.60;;;6.67;;
11924;SDS011;6022;48.768;18.608;2022-08-21T00:20:34;12.33;;;6.03;;
11924;SDS011;6022;48.768;18.608;2022-08-21T00:23:02;12.20;;;6.23;;
11924;SDS011;6022;48.768;18.608;2022-08-21T00:25:31;8.60;;;6.10;;
11924;SDS011;6022;48.768;18.608;2022-08-21T00:27:59;9.73;;;5.90;;
11924;SDS011;6022;48.768;18.608;2022-08-21T00:30:28;14.73;;;5.83;;
11924;SDS011;6022;48.768;18.608;2022-08-21T00:32:57;9.77;;;6.13;;
11924;SDS011;6022;48.768;18.608;2022-08-21T00:35:31;7.87;;;5.80;;
11924;SDS011;6022;48.768;18.608;2022-08-21T00:38:03;8.87;;;5.77;;
11924;SDS011;6022;48.768;18.608;2022-08-21T00:40:39;10.97;;;5.73;;
11924;SDS011;6022;48.768;18.608;2022-08-21T00:43:08;13.13;;;5.60;;
11924;SDS011;6022;48.768;18.608;2022-08-21T00:45:38;8.87;;;5.37;;
11924;SDS011;6022;48.768;18.608;2022-08-21T00:48:06;8.50;;;6.20;;
11924;SDS011;6022;48.768;18.608;2022-08-21T00:50:35;10.83;;;5.73;;
11924;SDS011;6022;48.768;18.608;2022-08-21T00:53:11;16.53;;;6.17;;
11924;SDS011;6022;48.768;18.608;2022-08-21T00:55:40;8.17;;;5.80;;
11924;SDS011;6022;48.768;18.608;2022-08-21T00:58:09;8.40;;;5.90;;
11924;SDS011;6022;48.768;18.608;2022-08-21T01:00:40;8.97;;;5.20;;
11924;SDS011;6022;48.768;18.608;2022-08-21T01:03:14;11.10;;;6.07;;
11924;SDS011;6022;48.768;18.608;2022-08-21T01:05:49;8.90;;;6.20;;
11924;SDS011;6022;48.768;18.608;2022-08-21T01:08:18;8.37;;;6.10;;
11924;SDS011;6022;48.768;18.608;2022-08-21T01:10:47;8.73;;;5.37;;
11924;SDS011;6022;48.768;18.608;2022-08-21T01:13:20;8.90;;;5.67;;
11924;SDS011;6022;48.768;18.608;2022-08-21T01:15:51;15.67;;;6.33;;
11924;SDS011;6022;48.768;18.608;2022-08-21T01:18:22;10.53;;;6.10;;
11924;SDS011;6022;48.768;18.608;2022-08-21T01:21:25;15.73;;;6.80;;
11924;SDS011;6022;48.768;18.608;2022-08-21T01:23:54;7.37;;;5.50;;
11924;SDS011;6022;48.768;18.608;2022-08-21T01:26:25;7.43;;;5.57;;
11924;SDS011;6022;48.768;18.608;2022-08-21T01:31:39;14.03;;;6.37;;
11924;SDS011;6022;48.768;18.608;2022-08-21T01:34:07;7.17;;;5.33;;
11924;SDS011;6022;48.768;18.608;2022-08-21T01:36:35;11.83;;;6.07;;
11924;SDS011;6022;48.768;18.608;2022-08-21T01:39:03;9.40;;;6.03;;
11924;SDS011;6022;48.768;18.608;2022-08-21T01:41:31;8.40;;;5.90;;
11924;SDS011;6022;48.768;18.608;2022-08-21T01:43:59;7.37;;;5.77;;
11924;SDS011;6022;48.768;18.608;2022-08-21T01:46:27;8.37;;;6.17;;
11924;SDS011;6022;48.768;18.608;2022-08-21T01:48:55;11.50;;;6.10;;
11924;SDS011;6022;48.768;18.608;2022-08-21T01:51:22;9.60;;;5.57;;
11924;SDS011;6022;48.768;18.608;2022-08-21T01:53:50;11.40;;;5.53;;
11924;SDS011;6022;48.768;18.608;2022-08-21T01:56:17;10.23;;;5.90;;
11924;SDS011;6022;48.768;18.608;2022-08-21T01:58:45;7.93;;;5.70;;
11924;SDS011;6022;48.768;18.608;2022-08-21T02:01:14;9.77;;;6.03;;
11924;SDS011;6022;48.768;18.608;2022-08-21T02:03:42;11.03;;;5.80;;
11924;SDS011;6022;48.768;18.608;2022-08-21T02:06:12;13.80;;;6.97;;
11924;SDS011;6022;48.768;18.608;2022-08-21T02:08:44;8.20;;;6.40;;
11924;SDS011;6022;48.768;18.608;2022-08-21T02:11:12;12.97;;;6.63;;
11924;SDS011;6022;48.768;18.608;2022-08-21T02:13:40;11.63;;;6.90;;
11924;SDS011;6022;48.768;18.608;2022-08-21T02:16:07;13.33;;;6.87;;
11924;SDS011;6022;48.768;18.608;2022-08-21T02:18:42;11.00;;;6.37;;
11924;SDS011;6022;48.768;18.608;2022-08-21T02:21:10;11.57;;;7.03;;
11924;SDS011;6022;48.768;18.608;2022-08-21T02:23:37;12.60;;;7.23;;
11924;SDS011;6022;48.768;18.608;2022-08-21T02:26:06;16.07;;;7.17;;
11924;SDS011;6022;48.768;18.608;2022-08-21T02:28:35;13.07;;;6.70;;
11924;SDS011;6022;48.768;18.608;2022-08-21T02:31:03;10.37;;;7.00;;
11924;SDS011;6022;48.768;18.608;2022-08-21T02:33:32;10.23;;;6.47;;
11924;SDS011;6022;48.768;18.608;2022-08-21T02:36:00;18.10;;;7.20;;
11924;SDS011;6022;48.768;18.608;2022-08-21T02:38:32;8.17;;;6.30;;
11924;SDS011;6022;48.768;18.608;2022-08-21T02:41:05;19.10;;;7.70;;
11924;SDS011;6022;48.768;18.608;2022-08-21T02:43:37;9.93;;;7.00;;
11924;SDS011;6022;48.768;18.608;2022-08-21T02:46:05;9.27;;;6.20;;
11924;SDS011;6022;48.768;18.608;2022-08-21T02:48:35;12.90;;;7.17;;
11924;SDS011;6022;48.768;18.608;2022-08-21T02:53:33;16.03;;;7.03;;
11924;SDS011;6022;48.768;18.608;2022-08-21T02:56:04;15.37;;;7.50;;
11924;SDS011;6022;48.768;18.608;2022-08-21T02:58:40;12.30;;;7.40;;
11924;SDS011;6022;48.768;18.608;2022-08-21T03:01:09;13.07;;;8.00;;
11924;SDS011;6022;48.768;18.608;2022-08-21T03:03:39;13.50;;;8.03;;
11924;SDS011;6022;48.768;18.608;2022-08-21T03:06:10;15.83;;;8.87;;
11924;SDS011;6022;48.768;18.608;2022-08-21T03:08:41;12.07;;;8.13;;
11924;SDS011;6022;48.768;18.608;2022-08-21T03:11:11;17.27;;;8.83;;
11924;SDS011;6022;48.768;18.608;2022-08-21T03:13:41;15.47;;;10.27;;
11924;SDS011;6022;48.768;18.608;2022-08-21T03:16:09;15.83;;;10.97;;
11924;SDS011;6022;48.768;18.608;2022-08-21T03:18:36;14.40;;;10.60;;
11924;SDS011;6022;48.768;18.608;2022-08-21T03:21:05;18.03;;;11.10;;
11924;SDS011;6022;48.768;18.608;2022-08-21T03:23:33;15.63;;;9.60;;
11924;SDS011;6022;48.768;18.608;2022-08-21T03:26:00;14.90;;;10.17;;
11924;SDS011;6022;48.768;18.608;2022-08-21T03:28:28;15.60;;;9.03;;
11924;SDS011;6022;48.768;18.608;2022-08-21T03:30:55;10.43;;;8.13;;
11924;SDS011;6022;48.768;18.608;2022-08-21T03:33:23;13.07;;;8.47;;
11924;SDS011;6022;48.768;18.608;2022-08-21T03:35:59;19.00;;;9.40;;
11924;SDS011;6022;48.768;18.608;2022-08-21T03:38:32;11.27;;;8.90;;
11924;SDS011;6022;48.768;18.608;2022-08-21T03:41:02;15.27;;;9.53;;
11924;SDS011;6022;48.768;18.608;2022-08-21T03:43:31;15.20;;;9.37;;
11924;SDS011;6022;48.768;18.608;2022-08-21T03:46:00;13.83;;;8.70;;
11924;SDS011;6022;48.768;18.608;2022-08-21T03:48:28;13.03;;;9.07;;
11924;SDS011;6022;48.768;18.608;2022-08-21T03:50:56;15.67;;;8.87;;
11924;SDS011;6022;48.768;18.608;2022-08-21T03:53:25;19.03;;;9.27;;
11924;SDS011;6022;48.768;18.608;2022-08-21T03:55:53;15.13;;;8.67;;
11924;SDS011;6022;48.768;18.608;2022-08-21T03:58:22;11.60;;;8.57;;
11924;SDS011;6022;48.768;18.608;2022-08-21T04:00:52;15.27;;;8.47;;
11924;SDS011;6022;48.768;18.608;2022-08-21T04:03:23;21.40;;;9.23;;
11924;SDS011;6022;48.768;18.608;2022-08-21T04:05:52;15.50;;;8.27;;
11924;SDS011;6022;48.768;18.608;2022-08-21T04:08:19;17.03;;;8.63;;
11924;SDS011;6022;48.768;18.608;2022-08-21T04:10:48;11.77;;;8.67;;
11924;SDS011;6022;48.768;18.608;2022-08-21T04:13:18;12.37;;;7.73;;
11924;SDS011;6022;48.768;18.608;2022-08-21T04:15:47;14.33;;;8.70;;
11924;SDS011;6022;48.768;18.608;2022-08-21T04:18:14;14.40;;;8.70;;
11924;SDS011;6022;48.768;18.608;2022-08-21T04:20:42;13.27;;;9.07;;
11924;SDS011;6022;48.768;18.608;2022-08-21T04:23:15;14.80;;;8.00;;
11924;SDS011;6022;48.768;18.608;2022-08-21T04:25:50;13.70;;;8.20;;
11924;SDS011;6022;48.768;18.608;2022-08-21T04:28:20;13.43;;;7.97;;
11924;SDS011;6022;48.768;18.608;2022-08-21T04:30:55;12.97;;;8.30;;
11924;SDS011;6022;48.768;18.608;2022-08-21T04:33:23;15.37;;;8.10;;
11924;SDS011;6022;48.768;18.608;2022-08-21T04:35:51;14.60;;;8.33;;
11924;SDS011;6022;48.768;18.608;2022-08-21T04:38:20;11.50;;;8.67;;
11924;SDS011;6022;48.768;18.608;2022-08-21T04:40:48;12.43;;;7.70;;
11924;SDS011;6022;48.768;18.608;2022-08-21T04:43:17;8.37;;;7.13;;
11924;SDS011;6022;48.768;18.608;2022-08-21T04:45:47;11.87;;;6.80;;
11924;SDS011;6022;48.768;18.608;2022-08-21T04:48:16;13.87;;;7.07;;
11924;SDS011;6022;48.768;18.608;2022-08-21T04:53:22;10.40;;;6.43;;
11924;SDS011;6022;48.768;18.608;2022-08-21T04:55:54;11.40;;;7.67;;
11924;SDS011;6022;48.768;18.608;2022-08-21T04:58:27;10.23;;;7.27;;
11924;SDS011;6022;48.768;18.608;2022-08-21T05:00:56;11.00;;;7.00;;
11924;SDS011;6022;48.768;18.608;2022-08-21T05:03:26;15.13;;;6.80;;
11924;SDS011;6022;48.768;18.608;2022-08-21T05:05:57;13.73;;;7.23;;
11924;SDS011;6022;48.768;18.608;2022-08-21T05:08:25;13.43;;;7.20;;
11924;SDS011;6022;48.768;18.608;2022-08-21T05:10:54;9.37;;;7.13;;
11924;SDS011;6022;48.768;18.608;2022-08-21T05:13:26;11.43;;;6.67;;
11924;SDS011;6022;48.768;18.608;2022-08-21T05:15:54;13.37;;;7.57;;
11924;SDS011;6022;48.768;18.608;2022-08-21T05:18:22;14.27;;;7.20;;
11924;SDS011;6022;48.768;18.608;2022-08-21T05:20:50;18.03;;;8.10;;
11924;SDS011;6022;48.768;18.608;2022-08-21T05:23:17;14.73;;;7.23;;
11924;SDS011;6022;48.768;18.608;2022-08-21T05:25:45;11.47;;;7.30;;
11924;SDS011;6022;48.768;18.608;2022-08-21T05:28:14;9.30;;;6.17;;
11924;SDS011;6022;48.768;18.608;2022-08-21T05:30:41;11.77;;;6.57;;
11924;SDS011;6022;48.768;18.608;2022-08-21T05:33:09;12.30;;;6.57;;
11924;SDS011;6022;48.768;18.608;2022-08-21T05:35:38;12.33;;;6.57;;
11924;SDS011;6022;48.768;18.608;2022-08-21T05:38:06;10.07;;;7.43;;
11924;SDS011;6022;48.768;18.608;2022-08-21T05:40:44;12.43;;;6.60;;
11924;SDS011;6022;48.768;18.608;2022-08-21T05:43:12;13.17;;;6.77;;
11924;SDS011;6022;48.768;18.608;2022-08-21T05:45:40;11.93;;;6.97;;
11924;SDS011;6022;48.768;18.608;2022-08-21T05:48:10;9.50;;;7.07;;
11924;SDS011;6022;48.768;18.608;2022-08-21T05:50:45;13.23;;;6.60;;
11924;SDS011;6022;48.768;18.608;2022-08-21T05:53:17;9.13;;;6.27;;
11924;SDS011;6022;48.768;18.608;2022-08-21T05:55:48;10.53;;;6.97;;
11924;SDS011;6022;48.768;18.608;2022-08-21T05:58:17;8.40;;;6.70;;
11924;SDS011;6022;48.768;18.608;2022-08-21T06:00:48;9.60;;;5.97;;
11924;SDS011;6022;48.768;18.608;2022-08-21T06:03:18;9.20;;;6.23;;
11924;SDS011;6022;48.768;18.608;2022-08-21T06:05:52;9.83;;;6.80;;
11924;SDS011;6022;48.768;18.608;2022-08-21T06:08:21;14.27;;;7.73;;
11924;SDS011;6022;48.768;18.608;2022-08-21T06:10:50;10.63;;;7.17;;
11924;SDS011;6022;48.768;18.608;2022-08-21T06:13:19;9.23;;;6.90;;
11924;SDS011;6022;48.768;18.608;2022-08-21T06:15:48;9.00;;;6.67;;
11924;SDS011;6022;48.768;18.608;2022-08-21T06:18:16;12.83;;;9.20;;
11924;SDS011;6022;48.768;18.608;2022-08-21T06:20:44;11.40;;;7.57;;
11924;SDS011;6022;48.768;18.608;2022-08-21T06:23:12;9.40;;;7.20;;
11924;SDS011;6022;48.768;18.608;2022-08-21T06:25:39;10.53;;;8.00;;
11924;SDS011;6022;48.768;18.608;2022-08-21T06:28:08;10.27;;;7.70;;
11924;SDS011;6022;48.768;18.608;2022-08-21T06:30:37;12.30;;;7.77;;
11924;SDS011;6022;48.768;18.608;2022-08-21T06:33:05;11.93;;;7.90;;
11924;SDS011;6022;48.768;18.608;2022-08-21T06:35:33;14.13;;;7.33;;
11924;SDS011;6022;48.768;18.608;2022-08-21T06:38:01;15.30;;;7.67;;
11924;SDS011;6022;48.768;18.608;2022-08-21T06:40:29;11.53;;;7.47;;
11924;SDS011;6022;48.768;18.608;2022-08-21T06:43:08;12.97;;;7.80;;
11924;SDS011;6022;48.768;18.608;2022-08-21T06:45:40;12.67;;;8.13;;
11924;SDS011;6022;48.768;18.608;2022-08-21T06:48:09;13.20;;;8.03;;
11924;SDS011;6022;48.768;18.608;2022-08-21T06:50:42;16.63;;;8.47;;
11924;SDS011;6022;48.768;18.608;2022-08-21T06:53:11;16.27;;;8.13;;
11924;SDS011;6022;48.768;18.608;2022-08-21T06:55:41;12.40;;;7.93;;
11924;SDS011;6022;48.768;18.608;2022-08-21T06:58:10;13.00;;;7.43;;
11924;SDS011;6022;48.768;18.608;2022-08-21T07:00:38;12.67;;;7.73;;
11924;SDS011;6022;48.768;18.608;2022-08-21T07:03:19;9.43;;;7.60;;
11924;SDS011;6022;48.768;18.608;2022-08-21T07:05:51;16.90;;;8.43;;
11924;SDS011;6022;48.768;18.608;2022-08-21T07:08:20;15.30;;;8.70;;
11924;SDS011;6022;48.768;18.608;2022-08-21T07:10:48;8.93;;;7.70;;
11924;SDS011;6022;48.768;18.608;2022-08-21T07:13:15;11.80;;;7.90;;
11924;SDS011;6022;48.768;18.608;2022-08-21T07:15:43;13.33;;;8.27;;
11924;SDS011;6022;48.768;18.608;2022-08-21T07:18:11;11.97;;;7.93;;
11924;SDS011;6022;48.768;18.608;2022-08-21T07:20:40;9.43;;;7.13;;
11924;SDS011;6022;48.768;18.608;2022-08-21T07:23:20;12.33;;;8.17;;
11924;SDS011;6022;48.768;18.608;2022-08-21T07:25:53;15.07;;;8.63;;
11924;SDS011;6022;48.768;18.608;2022-08-21T07:28:21;10.50;;;6.83;;
11924;SDS011;6022;48.768;18.608;2022-08-21T07:30:56;16.53;;;9.20;;
11924;SDS011;6022;48.768;18.608;2022-08-21T07:33:26;15.23;;;10.03;;
11924;SDS011;6022;48.768;18.608;2022-08-21T07:35:56;15.87;;;9.50;;
11924;SDS011;6022;48.768;18.608;2022-08-21T07:38:24;14.03;;;8.43;;
11924;SDS011;6022;48.768;18.608;2022-08-21T07:40:52;14.63;;;9.30;;
11924;SDS011;6022;48.768;18.608;2022-08-21T07:43:25;17.50;;;10.47;;
11924;SDS011;6022;48.768;18.608;2022-08-21T07:45:52;15.93;;;9.33;;
11924;SDS011;6022;48.768;18.608;2022-08-21T07:48:21;17.13;;;10.57;;
11924;SDS011;6022;48.768;18.608;2022-08-21T07:50:48;12.20;;;9.07;;
11924;SDS011;6022;48.768;18.608;2022-08-21T07:53:17;25.00;;;12.27;;
11924;SDS011;6022;48.768;18.608;2022-08-21T07:55:44;13.07;;;9.53;;
11924;SDS011;6022;48.768;18.608;2022-08-21T07:58:12;16.30;;;9.93;;
11924;SDS011;6022;48.768;18.608;2022-08-21T08:00:40;14.20;;;11.03;;
11924;SDS011;6022;48.768;18.608;2022-08-21T08:03:07;14.93;;;9.70;;
11924;SDS011;6022;48.768;18.608;2022-08-21T08:05:35;17.07;;;10.93;;
11924;SDS011;6022;48.768;18.608;2022-08-21T08:08:06;17.30;;;10.27;;
11924;SDS011;6022;48.768;18.608;2022-08-21T08:10:34;27.47;;;20.50;;
11924;SDS011;6022;48.768;18.608;2022-08-21T08:13:03;19.13;;;12.07;;
11924;SDS011;6022;48.768;18.608;2022-08-21T08:15:36;17.60;;;10.40;;
11924;SDS011;6022;48.768;18.608;2022-08-21T08:18:04;15.70;;;10.70;;
11924;SDS011;6022;48.768;18.608;2022-08-21T08:20:31;12.73;;;9.57;;
11924;SDS011;6022;48.768;18.608;2022-08-21T08:22:59;17.77;;;10.17;;
11924;SDS011;6022;48.768;18.608;2022-08-21T08:25:27;13.10;;;10.60;;
11924;SDS011;6022;48.768;18.608;2022-08-21T08:28:03;15.87;;;10.83;;
11924;SDS011;6022;48.768;18.608;2022-08-21T08:30:42;11.97;;;9.97;;
11924;SDS011;6022;48.768;18.608;2022-08-21T08:33:11;16.10;;;11.20;;
11924;SDS011;6022;48.768;18.608;2022-08-21T08:35:39;12.70;;;10.20;;
11924;SDS011;6022;48.768;18.608;2022-08-21T08:38:11;18.37;;;10.67;;
11924;SDS011;6022;48.768;18.608;2022-08-21T08:43:54;14.50;;;10.10;;
11924;SDS011;6022;48.768;18.608;2022-08-21T08:49:14;12.23;;;9.57;;
11924;SDS011;6022;48.768;18.608;2022-08-21T08:52:11;12.30;;;8.90;;
11924;SDS011;6022;48.768;18.608;2022-08-21T08:55:06;18.07;;;10.23;;
11924;SDS011;6022;48.768;18.608;2022-08-21T08:57:35;12.57;;;8.43;;
11924;SDS011;6022;48.768;18.608;2022-08-21T09:00:05;11.37;;;9.30;;
11924;SDS011;6022;48.768;18.608;2022-08-21T09:02:42;14.73;;;9.13;;
11924;SDS011;6022;48.768;18.608;2022-08-21T09:05:32;13.30;;;9.43;;
11924;SDS011;6022;48.768;18.608;2022-08-21T09:08:15;19.27;;;9.70;;
11924;SDS011;6022;48.768;18.608;2022-08-21T09:17:39;13.87;;;9.80;;
11924;SDS011;6022;48.768;18.608;2022-08-21T09:24:32;14.40;;;9.27;;
11924;SDS011;6022;48.768;18.608;2022-08-21T09:27:10;14.77;;;9.27;;
11924;SDS011;6022;48.768;18.608;2022-08-21T09:29:46;12.60;;;8.40;;
11924;SDS011;6022;48.768;18.608;2022-08-21T09:40:30;9.87;;;8.67;;
11924;SDS011;6022;48.768;18.608;2022-08-21T09:45:48;16.87;;;9.17;;
11924;SDS011;6022;48.768;18.608;2022-08-21T09:48:38;13.00;;;9.40;;
11924;SDS011;6022;48.768;18.608;2022-08-21T09:51:17;13.83;;;9.43;;
11924;SDS011;6022;48.768;18.608;2022-08-21T09:53:52;12.03;;;8.90;;
11924;SDS011;6022;48.768;18.608;2022-08-21T09:56:27;11.40;;;8.77;;
11924;SDS011;6022;48.768;18.608;2022-08-21T09:59:31;13.57;;;8.87;;
11924;SDS011;6022;48.768;18.608;2022-08-21T10:05:02;13.07;;;8.70;;
11924;SDS011;6022;48.768;18.608;2022-08-21T10:07:42;11.10;;;7.53;;
11924;SDS011;6022;48.768;18.608;2022-08-21T10:10:15;11.50;;;8.50;;
11924;SDS011;6022;48.768;18.608;2022-08-21T10:13:16;12.97;;;8.70;;
11924;SDS011;6022;48.768;18.608;2022-08-21T10:18:46;12.70;;;8.17;;
11924;SDS011;6022;48.768;18.608;2022-08-21T10:21:59;9.73;;;7.63;;
11924;SDS011;6022;48.768;18.608;2022-08-21T10:27:53;9.73;;;7.60;;
11924;SDS011;6022;48.768;18.608;2022-08-21T10:35:41;12.23;;;7.90;;
11924;SDS011;6022;48.768;18.608;2022-08-21T10:38:38;12.43;;;8.03;;
11924;SDS011;6022;48.768;18.608;2022-08-21T10:42:21;10.27;;;7.47;;
11924;SDS011;6022;48.768;18.608;2022-08-21T10:47:48;18.13;;;14.00;;
11924;SDS011;6022;48.768;18.608;2022-08-21T10:50:42;8.23;;;6.90;;
11924;SDS011;6022;48.768;18.608;2022-08-21T10:56:48;10.07;;;7.70;;
11924;SDS011;6022;48.768;18.608;2022-08-21T10:59:51;11.43;;;8.43;;
11924;SDS011;6022;48.768;18.608;2022-08-21T11:02:29;11.90;;;8.30;;
11924;SDS011;6022;48.768;18.608;2022-08-21T11:05:14;13.83;;;8.17;;
11924;SDS011;6022;48.768;18.608;2022-08-21T11:10:44;13.67;;;8.37;;
11924;SDS011;6022;48.768;18.608;2022-08-21T11:27:36;11.47;;;9.03;;
11924;SDS011;6022;48.768;18.608;2022-08-21T11:30:13;17.13;;;8.13;;
11924;SDS011;6022;48.768;18.608;2022-08-21T11:54:49;11.60;;;8.63;;
11924;SDS011;6022;48.768;18.608;2022-08-21T11:57:34;10.03;;;8.37;;
11924;SDS011;6022;48.768;18.608;2022-08-21T12:00:28;8.53;;;7.73;;
11924;SDS011;6022;48.768;18.608;2022-08-21T12:03:13;11.33;;;8.17;;
11924;SDS011;6022;48.768;18.608;2022-08-21T12:05:54;8.27;;;7.47;;
11924;SDS011;6022;48.768;18.608;2022-08-21T12:11:06;11.73;;;8.63;;
11924;SDS011;6022;48.768;18.608;2022-08-21T12:13:57;9.97;;;8.47;;
11924;SDS011;6022;48.768;18.608;2022-08-21T12:16:32;12.30;;;8.07;;
11924;SDS011;6022;48.768;18.608;2022-08-21T12:21:32;10.37;;;8.00;;
11924;SDS011;6022;48.768;18.608;2022-08-21T12:26:51;12.20;;;9.17;;
11924;SDS011;6022;48.768;18.608;2022-08-21T12:32:02;11.60;;;10.40;;
11924;SDS011;6022;48.768;18.608;2022-08-21T12:34:52;9.60;;;8.60;;
11924;SDS011;6022;48.768;18.608;2022-08-21T12:37:59;7.07;;;6.30;;
11924;SDS011;6022;48.768;18.608;2022-08-21T12:40:40;9.37;;;7.27;;
11924;SDS011;6022;48.768;18.608;2022-08-21T12:45:57;6.93;;;5.53;;
11924;SDS011;6022;48.768;18.608;2022-08-21T12:48:29;6.27;;;5.67;;
11924;SDS011;6022;48.768;18.608;2022-08-21T12:52:00;5.63;;;5.10;;
11924;SDS011;6022;48.768;18.608;2022-08-21T12:54:40;5.57;;;4.87;;
11924;SDS011;6022;48.768;18.608;2022-08-21T12:57:20;5.33;;;4.83;;
11924;SDS011;6022;48.768;18.608;2022-08-21T12:59:55;5.40;;;4.30;;
11924;SDS011;6022;48.768;18.608;2022-08-21T13:02:31;5.20;;;4.70;;
11924;SDS011;6022;48.768;18.608;2022-08-21T13:05:07;5.30;;;4.80;;
11924;SDS011;6022;48.768;18.608;2022-08-21T13:07:43;5.73;;;5.23;;
11924;SDS011;6022;48.768;18.608;2022-08-21T13:12:50;7.87;;;5.17;;
11924;SDS011;6022;48.768;18.608;2022-08-21T13:15:27;7.07;;;4.77;;
11924;SDS011;6022;48.768;18.608;2022-08-21T13:17:59;4.63;;;4.23;;
11924;SDS011;6022;48.768;18.608;2022-08-21T13:20:31;5.17;;;4.63;;
11924;SDS011;6022;48.768;18.608;2022-08-21T13:23:25;6.77;;;5.47;;
11924;SDS011;6022;48.768;18.608;2022-08-21T13:25:55;5.07;;;4.57;;
11924;SDS011;6022;48.768;18.608;2022-08-21T13:28:24;7.47;;;4.60;;
11924;SDS011;6022;48.768;18.608;2022-08-21T13:31:05;5.03;;;4.63;;
11924;SDS011;6022;48.768;18.608;2022-08-21T13:33:36;4.70;;;4.30;;
11924;SDS011;6022;48.768;18.608;2022-08-21T13:38:40;5.23;;;4.23;;
11924;SDS011;6022;48.768;18.608;2022-08-21T13:43:47;4.03;;;3.73;;
11924;SDS011;6022;48.768;18.608;2022-08-21T13:46:29;4.03;;;3.73;;
11924;SDS011;6022;48.768;18.608;2022-08-21T13:49:00;3.77;;;3.30;;
11924;SDS011;6022;48.768;18.608;2022-08-21T13:51:30;4.17;;;3.87;;
11924;SDS011;6022;48.768;18.608;2022-08-21T13:53:59;4.03;;;3.60;;
11924;SDS011;6022;48.768;18.608;2022-08-21T13:56:28;4.03;;;3.57;;
11924;SDS011;6022;48.768;18.608;2022-08-21T13:59:09;4.00;;;3.60;;
11924;SDS011;6022;48.768;18.608;2022-08-21T14:04:38;3.30;;;3.00;;
11924;SDS011;6022;48.768;18.608;2022-08-21T14:07:27;3.30;;;2.93;;
11924;SDS011;6022;48.768;18.608;2022-08-21T14:10:04;2.80;;;2.60;;
11924;SDS011;6022;48.768;18.608;2022-08-21T14:15:21;3.47;;;2.40;;
11924;SDS011;6022;48.768;18.608;2022-08-21T14:17:57;2.60;;;2.40;;
11924;SDS011;6022;48.768;18.608;2022-08-21T14:20:44;2.90;;;2.57;;
11924;SDS011;6022;48.768;18.608;2022-08-21T14:23:22;2.33;;;2.23;;
11924;SDS011;6022;48.768;18.608;2022-08-21T14:25:52;2.17;;;2.07;;
11924;SDS011;6022;48.768;18.608;2022-08-21T14:28:26;7.87;;;1.97;;
11924;SDS011;6022;48.768;18.608;2022-08-21T14:31:11;2.30;;;2.10;;
11924;SDS011;6022;48.768;18.608;2022-08-21T14:33:56;2.20;;;2.00;;
11924;SDS011;6022;48.768;18.608;2022-08-21T14:36:23;2.40;;;2.17;;
11924;SDS011;6022;48.768;18.608;2022-08-21T14:38:50;2.13;;;1.97;;
11924;SDS011;6022;48.768;18.608;2022-08-21T14:41:19;1.90;;;1.80;;
11924;SDS011;6022;48.768;18.608;2022-08-21T14:43:50;2.00;;;1.90;;
11924;SDS011;6022;48.768;18.608;2022-08-21T14:46:31;2.30;;;2.20;;
11924;SDS011;6022;48.768;18.608;2022-08-21T14:49:00;1.87;;;1.70;;
11924;SDS011;6022;48.768;18.608;2022-08-21T14:51:28;1.83;;;1.30;;
11924;SDS011;6022;48.768;18.608;2022-08-21T14:53:56;2.30;;;1.77;;
11924;SDS011;6022;48.768;18.608;2022-08-21T14:56:24;1.70;;;1.60;;
11924;SDS011;6022;48.768;18.608;2022-08-21T14:58:52;1.80;;;1.70;;
11924;SDS011;6022;48.768;18.608;2022-08-21T15:01:22;2.63;;;1.43;;
11924;SDS011;6022;48.768;18.608;2022-08-21T15:03:50;1.80;;;1.70;;
11924;SDS011;6022;48.768;18.608;2022-08-21T15:06:18;2.10;;;2.00;;
11924;SDS011;6022;48.768;18.608;2022-08-21T15:08:48;2.30;;;2.10;;
11924;SDS011;6022;48.768;18.608;2022-08-21T15:11:16;2.30;;;1.60;;
11924;SDS011;6022;48.768;18.608;2022-08-21T15:14:08;2.07;;;1.87;;
11924;SDS011;6022;48.768;18.608;2022-08-21T15:16:46;1.53;;;1.43;;
11924;SDS011;6022;48.768;18.608;2022-08-21T15:19:15;2.43;;;1.30;;
11924;SDS011;6022;48.768;18.608;2022-08-21T15:21:43;1.50;;;1.20;;
11924;SDS011;6022;48.768;18.608;2022-08-21T15:24:10;1.30;;;1.20;;
11924;SDS011;6022;48.768;18.608;2022-08-21T15:26:37;3.93;;;1.77;;
11924;SDS011;6022;48.768;18.608;2022-08-21T15:29:05;2.40;;;1.30;;
11924;SDS011;6022;48.768;18.608;2022-08-21T15:31:35;2.47;;;1.33;;
11924;SDS011;6022;48.768;18.608;2022-08-21T15:34:15;2.00;;;1.50;;
11924;SDS011;6022;48.768;18.608;2022-08-21T15:36:43;1.00;;;1.00;;
11924;SDS011;6022;48.768;18.608;2022-08-21T15:39:11;1.00;;;0.80;;
11924;SDS011;6022;48.768;18.608;2022-08-21T15:41:39;1.03;;;0.80;;
11924;SDS011;6022;48.768;18.608;2022-08-21T15:44:06;0.67;;;0.67;;
11924;SDS011;6022;48.768;18.608;2022-08-21T15:46:38;0.70;;;0.70;;
11924;SDS011;6022;48.768;18.608;2022-08-21T15:49:07;2.37;;;0.87;;
11924;SDS011;6022;48.768;18.608;2022-08-21T15:51:34;1.00;;;0.87;;
11924;SDS011;6022;48.768;18.608;2022-08-21T15:54:08;1.20;;;1.10;;
11924;SDS011;6022;48.768;18.608;2022-08-21T15:56:37;0.40;;;0.40;;
11924;SDS011;6022;48.768;18.608;2022-08-21T15:59:09;2.77;;;0.63;;
11924;SDS011;6022;48.768;18.608;2022-08-21T16:01:43;2.43;;;0.67;;
11924;SDS011;6022;48.768;18.608;2022-08-21T16:04:15;2.07;;;0.77;;
11924;SDS011;6022;48.768;18.608;2022-08-21T16:06:53;0.97;;;0.93;;
11924;SDS011;6022;48.768;18.608;2022-08-21T16:09:29;0.93;;;0.70;;
11924;SDS011;6022;48.768;18.608;2022-08-21T16:11:56;1.33;;;0.70;;
11924;SDS011;6022;48.768;18.608;2022-08-21T16:14:28;2.37;;;2.17;;
11924;SDS011;6022;48.768;18.608;2022-08-21T16:16:57;0.77;;;0.77;;
11924;SDS011;6022;48.768;18.608;2022-08-21T16:19:25;1.23;;;0.83;;
11924;SDS011;6022;48.768;18.608;2022-08-21T16:21:55;3.70;;;0.60;;
11924;SDS011;6022;48.768;18.608;2022-08-21T16:24:23;0.80;;;0.70;;
11924;SDS011;6022;48.768;18.608;2022-08-21T16:26:50;1.57;;;0.50;;
11924;SDS011;6022;48.768;18.608;2022-08-21T16:29:23;1.53;;;0.50;;
11924;SDS011;6022;48.768;18.608;2022-08-21T16:31:56;0.80;;;0.70;;
11924;SDS011;6022;48.768;18.608;2022-08-21T16:34:23;1.83;;;0.60;;
11924;SDS011;6022;48.768;18.608;2022-08-21T16:36:53;1.70;;;0.77;;
11924;SDS011;6022;48.768;18.608;2022-08-21T16:39:21;0.97;;;0.90;;
11924;SDS011;6022;48.768;18.608;2022-08-21T16:41:49;1.93;;;0.80;;
11924;SDS011;6022;48.768;18.608;2022-08-21T16:44:17;0.70;;;0.70;;
11924;SDS011;6022;48.768;18.608;2022-08-21T16:46:47;0.93;;;0.70;;
11924;SDS011;6022;48.768;18.608;2022-08-21T16:49:18;4.60;;;3.47;;
11924;SDS011;6022;48.768;18.608;2022-08-21T16:51:45;0.80;;;0.60;;
11924;SDS011;6022;48.768;18.608;2022-08-21T16:54:14;1.80;;;1.10;;
11924;SDS011;6022;48.768;18.608;2022-08-21T16:56:41;0.60;;;0.60;;
11924;SDS011;6022;48.768;18.608;2022-08-21T16:59:13;0.70;;;0.70;;
11924;SDS011;6022;48.768;18.608;2022-08-21T17:01:43;0.43;;;0.43;;
11924;SDS011;6022;48.768;18.608;2022-08-21T17:04:11;0.70;;;0.70;;
11924;SDS011;6022;48.768;18.608;2022-08-21T17:06:39;1.47;;;0.50;;
11924;SDS011;6022;48.768;18.608;2022-08-21T17:09:07;2.57;;;0.73;;
11924;SDS011;6022;48.768;18.608;2022-08-21T17:11:40;1.40;;;0.77;;